Roseburg Regional, OR

9:48 AM PDT on August 22, 2014 (GMT -0700)
Roseburg Regional | Change Station
CLOSE
Current Station
Airport
Location: Roseburg,
Elevation: 525 ft
Nearby Weather Stations

Elev 525 ft 43.24 °N, 123.36 °W | Updated 55 minutes ago

Overcast
Overcast
65 °F
Feels Like 65 °F
N
0
Wind Variable Wind from North

Today
High -- | Low -- °F
--% Chance of Precip.
Yesterday
High -- | Low -- °F
Precip. -- in
6:26 AM 8:05 PM
Waning Crescent, 7% visible
Pressure 30.02 in
Visibility 10.0 miles
Clouds Overcast 2000 ft
Dew Point 56 °F
Humidity 73%
Rainfall 0.00 in
Snow Depth Not available.
UV 1 out of 12
Pollen 3.50 out of 12
Air Quality Not available.
Flu Activity Not available.
METAR KRBG 221553Z AUTO 00000KT 10SM OVC020 18/13 A3003 RMK AO2 SLP166 T01830133

More Conditions Fewer Conditions

Pressure 30.02 in
Visibility 10.0 miles
Clouds Overcast 2000 ft
Dew Point 56 °F
Humidity 73%
Rainfall 0.00 in
Snow Depth Not available.
UV 1 out of 12
Pollen 3.50 out of 12
Air Quality Not available.
Flu Activity Not available.
METAR KRBG 221553Z AUTO 00000KT 10SM OVC020 18/13 A3003 RMK AO2 SLP166 T01830133

More Conditions Fewer Conditions

10-Day Weather Forecast

Almanac

Astronomy

Aug. 22, 2014 Rise Set
Actual Time 6:26 AM PDT 8:05 PM PDT
Civil Twilight 5:56 AM PDT 8:35 PM PDT
Nautical Twilight 5:19 AM PDT 9:11 PM PDT
Astronomical Twilight 4:40 AM PDT 9:50 PM PDT
Moon 3:52 AM PDT 6:18 PM PDT
Length of Visible Light 14h 38m
Length of Day
13h 38m
Tomorrow will be 2m 43s shorter.
Waning Crescent, 7% of the Moon is Illuminated
Today
Waning Crescent
Aug 25
New
Sep 2
First Quarter
Sep 8
Full
Sep 15
Last Quarter

Today's Extremes

State Highs State Lows

Community

WunderPhotos

Upload Photos

1,746,197 photos uploaded!

Nearby

Snow Depth

Station Depth Elevation
Diamond Lake 0 in 5315 ft
Annie Springs 0 in 6020 ft
Salt Creek Falls 0 in 4000 ft
Cascade Summit 0 in 4880 ft
Sevenmile Marsh 0 in 6200 ft

Earthquake Activity

City Distance Mag. Time & Date
No recent earthquake activity has been reported nearby.
Minimum magnitude displayed is 2.5.

Coastal Water Temperatures

Place Temperature
No Stations Reporting

Nearby Weather Stations